メインページ
METAR-TAF:

METAR-TAF

空港 :

モントリオール・トルドー, ケベック州, カナダ

モントリオール・ピエール・エリオット・トルドー国際空港

緯度: 45-28N, 経度: 073-45W, 海抜: 31m

現時点の気象観測

当レポートは42分前の21:25(UTC)に作成
の風 10kt
気温 5°C
湿度 60%
気圧 1020 hPa
視程: 24.1km
高度3000ftの雲はほとんどない
高度4700ftの千切れ雲あり
高度7000ftの曇り
小雨

METAR: CYUL 192125Z CCA 17010KT 15SM -RA FEW030 BKN047 OVC070 05/M02 A3013 RMK SC2SC4AC2 SLP208

時間: 17:07 (22:07 UTC)

予報

当レポートは1時間29分前の20:38(UTC)に作成
予報は19日の 21時(UTC)から 20日の 18時(UTC)まで有効
南/南東の風 6kt
視程: 10km
高度8000ftの曇り
19日の 2200時(UTC)から
南/南東の風 9kt
視程: 10km
高度6000ftの曇り
小雨
19日の 22時(UTC)から 19日の 24時(UTC)まで一時的に
視程: 8.0km
高度3000ftの曇り
小雨, 靄
20日の 0000時(UTC)から
南/南東の風 12kt
視程: 4.8km
高度2000ftの曇り
小雨, 靄
確率 30%
20日の 03時(UTC)から 20日の 06時(UTC)まで
高度800ftの曇り
雨, 靄
20日の 0600時(UTC)から
の風 6kt
高度800ftの曇り
小雨, 靄
確率 30%
20日の 06時(UTC)から 20日の 12時(UTC)まで
高度400ftの曇り
雨, 靄
20日の 1200時(UTC)から
北東の風 10kt
視程: 4.8km
高度600ftの曇り
雨, 靄
確率 30%
20日の 12時(UTC)から 20日の 18時(UTC)まで
視程: 0.8km
高度200ftの
小雨, 霧

TAF: CYUL 192038Z 1921/2018 15006KT P6SM OVC080 FM192200 15009KT P6SM -RA OVC060 TEMPO 1922/1924 5SM -RA BR OVC030 FM200000 15012KT 3SM -RA BR OVC020 PROB30 2003/2006 21/2SM RA BR OVC008 FM200600 10006KT 21/2SM -RA BR OVC008 PROB30 2006/2012 11/4SM RA BR OVC004 FM201200 05010KT 3SM RA BR OVC006 PROB30 2012/2018 1/2SM -RA FG VV002 RMK NXT FCST BY 200000Z

4,000以上の空港の気象観測と天気予報(METAR報とTAF報)

利用可能な観測所は地図上に黄色い丸と赤い丸で示す。

丸の上にカーソルを重ねると観測所名を参照できる。

次にクリックすると気象観測と天気予報を参照できる。

マップの切り替え:黒色「×」印の緑ボタンをクリックして拡大、「-」印の緑ボタンをクリックして縮小、緑色の三角印をクリックして隣りの地図に切り替え


METAR-TAF: